Time;durP1;ratioP1;P1;durP2;ratioP2;P2;SDS_P1;SDS_P2;PMS_P1;PMS_P2;Temp;Humidity;BMP_temperature;BMP_pressure;BME280_temperature;BME280_humidity;BME280_pressure;Samples;Min_cycle;Max_cycle;Signal;HPM_P1;HPM_P2
2022/03/29 00:00:00;;;;;;;28.50;10.83;;;;;;;6.56;86.80;101529.47;4900396;29;20035;-87
2022/03/29 00:02:25;;;;;;;21.83;10.52;;;;;;;6.64;86.54;101548.69;4923568;29;20052;-87
2022/03/29 00:04:50;;;;;;;27.48;11.20;;;;;;;6.60;87.02;101552.78;4410354;23;15063568;-87
2022/03/29 00:10:32;;;;;;;27.63;11.00;;;;;;;6.53;86.78;101545.88;4955255;28;20505;-87
2022/03/29 00:13:47;;;;;;;30.08;11.30;;;;;;;6.58;86.48;101551.34;4959235;29;20031;-87
2022/03/29 00:16:12;;;;;;;26.63;10.23;;;;;;;6.34;87.16;101527.09;4876580;29;20478;-88
2022/03/29 00:18:56;;;;;;;25.77;10.80;;;;;;;6.29;86.87;101524.25;4922414;29;20032;-87
2022/03/29 00:21:42;;;;;;;28.23;11.98;;;;;;;6.24;87.79;101519.56;4920217;29;20086;-87
2022/03/29 00:24:08;;;;;;;28.77;11.20;;;;;;;6.20;87.36;101524.53;4961359;23;20059;-87
2022/03/29 00:26:33;;;;;;;29.83;12.00;;;;;;;6.21;87.99;101538.63;4898886;29;20037;-87
2022/03/29 00:28:59;;;;;;;24.30;11.03;;;;;;;6.24;88.11;101542.69;4896086;29;20044;-87
2022/03/29 00:31:24;;;;;;;25.93;11.93;;;;;;;6.07;88.15;101521.88;4897499;29;20040;-85
2022/03/29 00:33:50;;;;;;;27.50;11.17;;;;;;;6.06;88.47;101534.38;4898277;29;20064;-87
2022/03/29 00:36:27;;;;;;;27.33;11.37;;;;;;;6.03;88.81;101521.50;4895016;29;21009;-88
2022/03/29 00:38:54;;;;;;;27.52;12.05;;;;;;;5.95;89.80;101523.53;4897543;29;20091;-87
2022/03/29 00:41:22;;;;;;;28.98;12.07;;;;;;;6.07;90.34;101543.16;4896281;29;20471;-87
2022/03/29 00:43:48;;;;;;;24.67;11.63;;;;;;;5.86;90.01;101501.69;4895886;29;20102;-86
2022/03/29 00:46:39;;;;;;;27.87;11.97;;;;;;;6.01;88.90;101525.41;4894722;29;20167;-87
2022/03/29 00:49:05;;;;;;;26.45;11.63;;;;;;;5.90;89.52;101509.03;4893056;29;20109;-87
2022/03/29 00:51:34;;;;;;;29.60;11.83;;;;;;;5.79;89.34;101493.72;4894545;29;20045;-87
2022/03/29 00:53:59;;;;;;;29.75;13.90;;;;;;;5.92;89.56;101506.16;4895046;29;20037;-87
2022/03/29 00:56:25;;;;;;;27.23;11.93;;;;;;;5.86;89.65;101504.34;4892499;29;20036;-87
2022/03/29 00:58:50;;;;;;;29.77;11.90;;;;;;;5.78;89.89;101497.41;4897848;29;20044;-87
2022/03/29 01:01:16;;;;;;;24.67;11.88;;;;;;;5.76;90.31;101494.13;4898466;29;20103;-87
2022/03/29 01:03:41;;;;;;;29.52;13.00;;;;;;;5.75;90.62;101492.50;4898929;29;20104;-87
2022/03/29 01:06:08;;;;;;;27.97;12.87;;;;;;;5.71;90.50;101486.78;4898557;29;20481;-87
2022/03/29 01:08:35;;;;;;;26.90;12.50;;;;;;;5.71;90.99;101494.75;4897297;29;20072;-87
2022/03/29 01:11:00;;;;;;;31.85;12.98;;;;;;;5.65;91.27;101492.94;4898959;29;20493;-87
2022/03/29 01:13:26;;;;;;;30.73;12.67;;;;;;;5.64;91.40;101483.31;4898475;29;20039;-87
2022/03/29 01:15:51;;;;;;;28.93;13.60;;;;;;;5.59;91.16;101485.78;4898470;29;20043;-87
2022/03/29 01:18:20;;;;;;;30.10;14.18;;;;;;;5.63;91.80;101494.16;4897875;29;20029;-87
2022/03/29 01:20:48;;;;;;;30.45;13.27;;;;;;;5.57;91.71;101496.63;4898301;29;20036;-87
2022/03/29 01:23:14;;;;;;;29.63;12.93;;;;;;;5.56;92.21;101480.91;4896216;29;20028;-88
2022/03/29 01:25:40;;;;;;;26.83;12.93;;;;;;;5.51;92.39;101486.81;4897265;29;20304;-87
2022/03/29 01:28:06;;;;;;;37.80;14.52;;;;;;;5.51;93.83;101488.66;4895499;29;20041;-87
2022/03/29 01:31:07;;;;;;;33.40;13.82;;;;;;;5.48;92.76;101483.75;5062080;23;20039;-88
2022/03/29 01:33:33;;;;;;;34.28;14.02;;;;;;;5.43;93.10;101479.06;4954035;29;20451;-87
2022/03/29 01:36:02;;;;;;;33.17;14.10;;;;;;;5.40;92.88;101485.59;4937388;29;20226;-88
2022/03/29 01:38:28;;;;;;;32.10;14.27;;;;;;;5.35;93.66;101472.13;4953947;29;20120;-88
2022/03/29 01:41:00;;;;;;;39.60;15.37;;;;;;;5.32;94.38;101472.53;4937315;29;20410;-87
2022/03/29 01:43:26;;;;;;;33.10;14.30;;;;;;;5.33;94.28;101478.66;4954778;29;20124;-87
2022/03/29 01:45:51;;;;;;;34.67;14.67;;;;;;;5.35;94.80;101473.97;4954504;29;20102;-87
2022/03/29 01:48:16;;;;;;;33.87;14.90;;;;;;;5.34;94.90;101470.50;4953547;29;20420;-88
2022/03/29 01:50:41;;;;;;;36.42;15.55;;;;;;;5.27;95.72;101472.34;4953599;29;20027;-88
2022/03/29 01:53:07;;;;;;;37.60;16.20;;;;;;;5.34;95.73;101475.00;4953782;28;20038;-88
2022/03/29 01:55:32;;;;;;;33.80;15.23;;;;;;;5.26;95.42;101471.53;4954571;29;20054;-87
2022/03/29 01:57:57;;;;;;;36.07;15.53;;;;;;;5.31;95.59;101463.75;4954246;29;20414;-87
2022/03/29 02:00:32;;;;;;;31.83;14.73;;;;;;;5.31;95.38;101460.28;4954539;29;20081;-87
2022/03/29 02:02:58;;;;;;;41.63;15.00;;;;;;;5.36;94.96;101457.00;4954740;29;20075;-87
2022/03/29 02:05:25;;;;;;;39.33;16.10;;;;;;;5.35;95.48;101444.72;4953762;29;20068;-87
2022/03/29 02:07:50;;;;;;;33.85;15.23;;;;;;;5.35;95.61;101434.94;4934320;29;20039;-87
2022/03/29 02:10:20;;;;;;;40.50;17.40;;;;;;;5.33;95.96;101436.16;4951159;28;20419;-88
2022/03/29 02:12:47;;;;;;;37.15;16.58;;;;;;;5.37;95.87;101442.69;4937483;29;20050;-88
2022/03/29 02:15:13;;;;;;;41.13;17.75;;;;;;;5.37;95.92;101432.88;4953001;28;20089;-89
2022/03/29 02:17:39;;;;;;;41.15;16.95;;;;;;;5.36;95.66;101427.75;4952455;28;20550;-90
2022/03/29 02:20:06;;;;;;;39.13;16.58;;;;;;;5.36;95.74;101425.09;4937134;29;20031;-90
2022/03/29 02:22:32;;;;;;;37.45;17.30;;;;;;;5.36;95.88;101435.72;4953703;29;20539;-89
2022/03/29 02:24:58;;;;;;;40.47;17.33;;;;;;;5.39;96.00;101430.00;4943997;23;20051;-91
2022/03/29 02:27:23;;;;;;;43.70;17.57;;;;;;;5.39;95.92;101422.03;4927027;29;20303;-92
2022/03/29 02:29:50;;;;;;;38.87;17.03;;;;;;;5.42;96.04;101419.75;4935461;29;20051;-90
2022/03/29 02:32:15;;;;;;;42.03;18.95;;;;;;;5.40;96.72;101416.50;4936430;29;20027;-91
2022/03/29 02:34:41;;;;;;;44.25;18.10;;;;;;;5.37;96.26;101416.94;4930620;29;20028;-91
2022/03/29 02:37:06;;;;;;;43.07;16.83;;;;;;;5.38;96.11;101415.91;4914505;29;20036;-90
2022/03/29 02:39:31;;;;;;;38.63;18.73;;;;;;;5.39;96.38;101414.84;4915036;29;20409;-93
2022/03/29 02:41:57;;;;;;;44.87;18.87;;;;;;;5.38;96.34;101405.28;4916812;29;20087;-93
2022/03/29 02:44:22;;;;;;;46.60;19.70;;;;;;;5.33;97.10;101398.94;4915683;29;20060;-93
2022/03/29 02:46:47;;;;;;;39.17;18.27;;;;;;;5.35;97.09;101394.22;4913846;29;20028;-93
2022/03/29 02:49:12;;;;;;;46.73;19.10;;;;;;;5.36;97.44;101399.34;4915989;29;20031;-91
2022/03/29 02:51:38;;;;;;;42.13;18.05;;;;;;;5.36;97.09;101394.03;4917688;29;20500;-92
2022/03/29 02:54:03;;;;;;;43.93;18.60;;;;;;;5.38;97.13;101386.69;4917375;29;20032;-93
2022/03/29 02:56:29;;;;;;;43.63;19.93;;;;;;;5.38;97.44;101380.53;4912543;29;20448;-93
2022/03/29 02:58:54;;;;;;;45.07;20.07;;;;;;;5.39;97.61;101387.47;4903609;29;20036;-92
2022/03/29 03:01:19;;;;;;;48.05;20.45;;;;;;;5.39;97.40;101379.50;4917048;29;20412;-92
2022/03/29 03:03:45;;;;;;;45.90;20.50;;;;;;;5.36;98.12;101375.44;4897265;29;20549;-87
2022/03/29 03:06:11;;;;;;;49.23;20.50;;;;;;;5.40;98.22;101376.63;4912611;29;20062;-87
2022/03/29 03:08:36;;;;;;;46.83;20.83;;;;;;;5.42;97.73;101376.44;4897445;29;20480;-87
2022/03/29 03:11:01;;;;;;;46.27;20.47;;;;;;;5.41;97.83;101375.59;4912314;29;20122;-87
2022/03/29 03:13:27;;;;;;;50.23;21.60;;;;;;;5.24;97.61;101345.19;4955384;23;20023;-87
2022/03/29 03:15:52;;;;;;;53.42;22.27;;;;;;;5.24;97.52;101332.75;4951603;28;20382;-87
2022/03/29 03:18:20;;;;;;;48.67;21.07;;;;;;;5.25;97.99;101339.69;4951175;28;20027;-87
2022/03/29 03:20:55;;;;;;;50.05;21.33;;;;;;;5.39;98.07;101372.34;4953360;28;20093;-87
2022/03/29 03:23:20;;;;;;;49.80;21.10;;;;;;;5.34;97.75;101358.06;4952126;28;20027;-87
2022/03/29 03:25:46;;;;;;;48.90;21.53;;;;;;;5.24;97.88;101337.22;4933223;29;20814;-87
2022/03/29 03:28:11;;;;;;;53.43;22.07;;;;;;;5.29;98.21;101354.19;4930901;29;20403;-87
2022/03/29 03:30:43;;;;;;;47.50;20.67;;;;;;;5.36;97.80;101350.69;4933253;29;20043;-87
2022/03/29 03:33:08;;;;;;;53.47;22.90;;;;;;;5.32;97.83;101347.63;4934050;29;20035;-88
2022/03/29 03:35:40;;;;;;;50.77;22.50;;;;;;;5.27;97.92;101339.47;4928909;29;20446;-87
2022/03/29 03:38:07;;;;;;;50.27;21.87;;;;;;;5.35;97.72;101349.06;4925799;29;20440;-87
2022/03/29 03:41:21;;;;;;;51.97;23.33;;;;;;;5.41;97.58;101364.16;4933613;29;20023;-87
2022/03/29 03:43:46;;;;;;;50.47;23.13;;;;;;;5.18;98.13;101320.28;4931746;29;20039;-86
2022/03/29 03:46:12;;;;;;;53.13;23.10;;;;;;;5.21;98.08;101327.84;4932844;29;20110;-87
2022/03/29 03:48:37;;;;;;;56.60;23.77;;;;;;;5.23;97.94;101330.28;4933123;29;20376;-87
2022/03/29 03:53:46;;;;;;;52.38;23.75;;;;;;;5.09;98.41;101322.34;4933092;29;20047;-87
2022/03/29 03:56:20;;;;;;;53.63;23.40;;;;;;;5.09;98.16;101313.59;4932922;29;20020;-87
2022/03/29 03:58:48;;;;;;;54.92;24.13;;;;;;;5.07;98.69;101313.78;4933559;29;20420;-88
2022/03/29 04:01:14;;;;;;;64.13;26.35;;;;;;;5.08;98.81;101322.56;4932786;29;20483;-88
2022/03/29 04:03:39;;;;;;;58.90;25.43;;;;;;;5.22;98.97;101339.28;4930939;29;20032;-87
2022/03/29 04:06:05;;;;;;;60.87;26.40;;;;;;;5.17;99.20;101341.75;4932529;29;20087;-88
2022/03/29 04:08:30;;;;;;;58.30;26.13;;;;;;;5.08;99.51;101327.91;4930923;29;20042;-91
2022/03/29 04:10:56;;;;;;;58.00;26.58;;;;;;;5.08;99.19;101331.34;4934090;29;20456;-88
2022/03/29 04:13:22;;;;;;;59.93;26.53;;;;;;;5.06;99.88;101332.59;4915256;29;20108;-92
2022/03/29 04:15:48;;;;;;;54.28;25.80;;;;;;;5.03;99.63;101319.72;4934015;29;20146;-91
2022/03/29 04:18:14;;;;;;;59.47;26.55;;;;;;;5.02;100.00;101326.88;4932024;29;20039;-91
2022/03/29 04:20:40;;;;;;;61.90;27.27;;;;;;;4.98;100.00;101323.81;4933668;29;20106;-91
2022/03/29 04:23:05;;;;;;;60.13;26.85;;;;;;;4.96;100.00;101330.38;4933503;29;20028;-91
2022/03/29 04:25:31;;;;;;;61.70;26.03;;;;;;;4.94;100.00;101322.59;4933998;29;20402;-91
2022/03/29 04:27:56;;;;;;;62.33;26.37;;;;;;;4.94;100.00;101317.28;4931450;29;20028;-90
2022/03/29 04:30:21;;;;;;;62.03;27.10;;;;;;;4.92;100.00;101303.41;4931846;29;20073;-89
2022/03/29 04:32:46;;;;;;;60.08;25.48;;;;;;;4.94;100.00;101311.16;4932283;29;20112;-91
2022/03/29 04:35:12;;;;;;;59.40;26.53;;;;;;;4.94;100.00;101305.84;4931995;29;20059;-90
2022/03/29 04:37:37;;;;;;;61.53;27.33;;;;;;;4.92;100.00;101302.59;4932709;29;20376;-91
2022/03/29 04:40:08;;;;;;;61.77;26.50;;;;;;;4.87;100.00;101303.22;4933909;29;20024;-90
2022/03/29 04:42:41;;;;;;;55.25;26.92;;;;;;;4.89;100.00;101297.69;4933298;29;20186;-90
2022/03/29 04:45:06;;;;;;;64.85;28.48;;;;;;;4.86;100.00;101301.59;4933367;29;20600;-91
2022/03/29 04:47:31;;;;;;;62.37;27.87;;;;;;;4.87;100.00;101303.22;4930394;29;20039;-89
2022/03/29 04:49:57;;;;;;;62.90;27.90;;;;;;;4.82;100.00;101297.72;4931292;29;20042;-93
2022/03/29 04:52:22;;;;;;;64.33;28.03;;;;;;;4.83;100.00;101297.50;4933125;29;20099;-90
2022/03/29 04:54:47;;;;;;;60.85;26.02;;;;;;;4.78;100.00;101288.50;4934208;29;20028;-91
2022/03/29 04:57:13;;;;;;;66.00;28.00;;;;;;;4.82;100.00;101295.03;4929649;29;20360;-91
2022/03/29 04:59:38;;;;;;;60.77;26.90;;;;;;;4.80;100.00;101295.28;4928688;29;20028;-91
2022/03/29 05:02:03;;;;;;;66.87;28.47;;;;;;;4.78;100.00;101291.16;4931865;29;20412;-92
2022/03/29 05:04:29;;;;;;;64.13;28.03;;;;;;;4.74;100.00;101282.00;4969898;23;20073;-91
2022/03/29 05:06:54;;;;;;;64.80;28.07;;;;;;;4.82;100.00;101293.22;4931312;29;20035;-95
2022/03/29 05:09:35;;;;;;;63.50;28.63;;;;;;;4.68;100.00;101249.94;4924021;29;20038;-95
2022/03/29 05:12:10;;;;;;;65.47;28.40;;;;;;;4.85;100.00;101276.03;4912972;29;20357;-92
2022/03/29 05:14:41;;;;;;;66.27;29.57;;;;;;;4.84;100.00;101264.59;4932951;29;20430;-92
2022/03/29 05:17:10;;;;;;;70.78;28.98;;;;;;;4.73;100.00;101243.22;4930971;29;20523;-92
2022/03/29 05:19:36;;;;;;;73.85;31.10;;;;;;;4.82;100.00;101255.22;4931131;29;20488;-91
2022/03/29 05:25:49;;;;;;;72.23;28.60;;;;;;;5.05;100.00;101275.19;5111065;23;20335;-91
2022/03/29 05:45:19;;;;;;;78.85;30.58;;;;;;;5.14;100.00;101281.88;5378051;23;20047;-93
2022/03/29 05:51:06;;;;;;;82.00;30.98;;;;;;;5.20;100.00;101256.31;4929767;29;20047;-91
2022/03/29 14:30:21;;;;;;;46.75;21.13;;;;;;;15.33;47.85;100882.06;4912765;29;20114;-87
2022/03/29 14:36:31;;;;;;;43.40;20.60;;;;;;;15.41;48.76;100886.81;4947576;29;20049;-91
2022/03/29 20:36:38;;;;;;;41.10;18.00;;;;;;;8.77;62.83;100731.00;4893225;29;20062;-90
2022/03/29 20:46:24;;;;;;;37.77;17.17;;;;;;;8.72;63.17;100732.81;4952650;29;20049;-91
2022/03/29 22:03:28;;;;;;;34.53;14.13;;;;;;;8.38;66.40;100711.50;5341645;23;20067;-89
2022/03/29 22:05:55;;;;;;;29.80;13.77;;;;;;;8.49;66.05;100714.06;4918889;29;20027;-89
2022/03/29 22:08:22;;;;;;;35.57;14.00;;;;;;;8.36;66.68;100702.91;4935316;29;20095;-89
2022/03/29 22:15:57;;;;;;;31.33;13.73;;;;;;;8.21;66.86;100703.50;5477895;23;20047;-91
2022/03/29 22:18:23;;;;;;;29.40;13.07;;;;;;;8.23;66.97;100702.19;4956541;28;20038;-93
2022/03/29 22:27:03;;;;;;;42.55;13.73;;;;;;;8.12;67.43;100705.78;4898669;29;20120;-93
2022/03/29 22:31:57;;;;;;;41.22;14.07;;;;;;;8.08;68.13;100705.47;5119530;23;20051;-93
2022/03/29 22:34:23;;;;;;;41.10;14.53;;;;;;;8.06;68.09;100714.75;4936508;29;20023;-92
2022/03/29 23:15:46;;;;;;;32.53;14.13;;;;;;;7.66;70.61;100687.19;4976785;23;20047;-93
2022/03/29 23:18:11;;;;;;;35.28;13.75;;;;;;;7.55;70.58;100681.69;4948051;29;20040;-95
2022/03/29 23:20:55;;;;;;;38.47;13.33;;;;;;;7.64;70.38;100692.78;4948697;29;20550;-94
2022/03/29 23:23:21;;;;;;;39.13;14.10;;;;;;;7.53;71.20;100670.44;4949187;29;20043;-93
2022/03/29 23:32:01;;;;;;;34.95;13.55;;;;;;;7.40;70.61;100655.56;5368522;23;20091;-93
2022/03/29 23:38:17;;;;;;;32.83;12.85;;;;;;;7.43;71.70;100673.75;4958392;29;20061;-93
2022/03/29 23:41:19;;;;;;;34.33;13.98;;;;;;;7.39;71.84;100667.28;5387487;23;20040;-93
2022/03/29 23:43:51;;;;;;;39.67;13.43;;;;;;;7.18;72.80;100644.78;4915974;29;20047;-94
2022/03/29 23:46:17;;;;;;;34.58;13.82;;;;;;;7.32;72.60;100668.47;4925387;29;20051;-94
2022/03/29 23:48:42;;;;;;;36.33;13.07;;;;;;;7.20;73.09;100661.38;4925147;29;20040;-93
